sensor_id;sensor_type;location;lat;lon;timestamp;temperature;humidity
70074;DHT22;57445;51.058;3.698;2023-03-20T00:02:05;7.90;99.90
70074;DHT22;57445;51.058;3.698;2023-03-20T00:04:34;7.60;99.90
70074;DHT22;57445;51.058;3.698;2023-03-20T00:07:02;7.70;99.90
70074;DHT22;57445;51.058;3.698;2023-03-20T00:09:30;7.60;99.90
70074;DHT22;57445;51.058;3.698;2023-03-20T00:11:58;7.40;99.90
70074;DHT22;57445;51.058;3.698;2023-03-20T00:14:32;6.90;99.90
70074;DHT22;57445;51.058;3.698;2023-03-20T00:17:01;6.70;99.90
70074;DHT22;57445;51.058;3.698;2023-03-20T00:19:31;6.80;99.90
70074;DHT22;57445;51.058;3.698;2023-03-20T00:22:00;7.50;99.90
70074;DHT22;57445;51.058;3.698;2023-03-20T00:24:32;7.70;99.90
70074;DHT22;57445;51.058;3.698;2023-03-20T00:27:00;7.70;99.90
70074;DHT22;57445;51.058;3.698;2023-03-20T00:29:30;7.60;99.90
70074;DHT22;57445;51.058;3.698;2023-03-20T00:32:09;7.40;99.90
70074;DHT22;57445;51.058;3.698;2023-03-20T00:34:38;7.20;99.90
70074;DHT22;57445;51.058;3.698;2023-03-20T00:37:07;7.00;99.90
70074;DHT22;57445;51.058;3.698;2023-03-20T00:39:35;7.40;99.90
70074;DHT22;57445;51.058;3.698;2023-03-20T00:42:04;7.50;99.90
70074;DHT22;57445;51.058;3.698;2023-03-20T00:44:38;7.30;99.90
70074;DHT22;57445;51.058;3.698;2023-03-20T00:47:17;7.20;99.90
70074;DHT22;57445;51.058;3.698;2023-03-20T00:49:46;7.10;99.90
70074;DHT22;57445;51.058;3.698;2023-03-20T00:52:17;7.30;99.90
70074;DHT22;57445;51.058;3.698;2023-03-20T00:54:44;7.50;99.90
70074;DHT22;57445;51.058;3.698;2023-03-20T00:57:16;7.70;99.90
70074;DHT22;57445;51.058;3.698;2023-03-20T00:59:50;7.60;99.90
70074;DHT22;57445;51.058;3.698;2023-03-20T01:02:23;7.50;99.90
70074;DHT22;57445;51.058;3.698;2023-03-20T01:04:54;7.50;99.90
70074;DHT22;57445;51.058;3.698;2023-03-20T01:07:22;7.70;99.90
70074;DHT22;57445;51.058;3.698;2023-03-20T01:09:55;8.00;99.90
70074;DHT22;57445;51.058;3.698;2023-03-20T01:12:28;8.10;99.90
70074;DHT22;57445;51.058;3.698;2023-03-20T01:14:56;7.90;99.90
70074;DHT22;57445;51.058;3.698;2023-03-20T01:17:31;7.80;99.90
70074;DHT22;57445;51.058;3.698;2023-03-20T01:19:59;7.60;99.90
70074;DHT22;57445;51.058;3.698;2023-03-20T01:22:27;7.40;99.90
70074;DHT22;57445;51.058;3.698;2023-03-20T01:24:55;7.70;99.90
70074;DHT22;57445;51.058;3.698;2023-03-20T01:27:23;7.60;99.90
70074;DHT22;57445;51.058;3.698;2023-03-20T01:29:52;8.20;99.90
70074;DHT22;57445;51.058;3.698;2023-03-20T01:32:20;7.80;99.90
70074;DHT22;57445;51.058;3.698;2023-03-20T01:34:49;8.00;99.90
70074;DHT22;57445;51.058;3.698;2023-03-20T01:37:23;7.80;99.90
70074;DHT22;57445;51.058;3.698;2023-03-20T01:39:51;7.90;99.90
70074;DHT22;57445;51.058;3.698;2023-03-20T01:42:24;7.90;99.90
70074;DHT22;57445;51.058;3.698;2023-03-20T01:44:52;7.90;99.90
70074;DHT22;57445;51.058;3.698;2023-03-20T01:47:24;7.80;99.90
70074;DHT22;57445;51.058;3.698;2023-03-20T01:50:21;7.30;99.90
70074;DHT22;57445;51.058;3.698;2023-03-20T01:52:57;7.30;99.90
70074;DHT22;57445;51.058;3.698;2023-03-20T01:55:27;7.50;99.90
70074;DHT22;57445;51.058;3.698;2023-03-20T01:57:59;7.40;99.90
70074;DHT22;57445;51.058;3.698;2023-03-20T02:00:28;7.30;99.90
70074;DHT22;57445;51.058;3.698;2023-03-20T02:02:57;7.10;99.90
70074;DHT22;57445;51.058;3.698;2023-03-20T02:05:26;7.00;99.90
70074;DHT22;57445;51.058;3.698;2023-03-20T02:08:01;7.10;99.90
70074;DHT22;57445;51.058;3.698;2023-03-20T02:10:37;7.30;99.90
70074;DHT22;57445;51.058;3.698;2023-03-20T02:13:05;7.30;99.90
70074;DHT22;57445;51.058;3.698;2023-03-20T02:15:34;7.50;99.90
70074;DHT22;57445;51.058;3.698;2023-03-20T02:18:02;7.70;99.90
70074;DHT22;57445;51.058;3.698;2023-03-20T02:20:55;7.40;99.90
70074;DHT22;57445;51.058;3.698;2023-03-20T02:23:51;7.20;99.90
70074;DHT22;57445;51.058;3.698;2023-03-20T02:26:38;7.60;99.90
70074;DHT22;57445;51.058;3.698;2023-03-20T02:35:59;7.80;99.90
70074;DHT22;57445;51.058;3.698;2023-03-20T02:41:46;7.60;99.90
70074;DHT22;57445;51.058;3.698;2023-03-20T02:44:23;7.60;99.90
70074;DHT22;57445;51.058;3.698;2023-03-20T02:46:56;7.70;99.90
70074;DHT22;57445;51.058;3.698;2023-03-20T02:49:37;7.40;99.90
70074;DHT22;57445;51.058;3.698;2023-03-20T02:52:15;7.30;99.90
70074;DHT22;57445;51.058;3.698;2023-03-20T02:54:53;7.20;99.90
70074;DHT22;57445;51.058;3.698;2023-03-20T02:57:23;7.50;99.90
70074;DHT22;57445;51.058;3.698;2023-03-20T02:59:58;7.70;99.90
70074;DHT22;57445;51.058;3.698;2023-03-20T03:02:36;8.10;99.90
70074;DHT22;57445;51.058;3.698;2023-03-20T03:05:09;8.00;99.90
70074;DHT22;57445;51.058;3.698;2023-03-20T03:07:40;7.90;99.90
70074;DHT22;57445;51.058;3.698;2023-03-20T03:10:19;7.80;99.90
70074;DHT22;57445;51.058;3.698;2023-03-20T03:12:55;7.70;99.90
70074;DHT22;57445;51.058;3.698;2023-03-20T03:15:32;8.00;99.90
70074;DHT22;57445;51.058;3.698;2023-03-20T03:18:04;7.70;99.90
70074;DHT22;57445;51.058;3.698;2023-03-20T03:20:38;7.70;99.90
70074;DHT22;57445;51.058;3.698;2023-03-20T03:23:06;7.80;99.90
70074;DHT22;57445;51.058;3.698;2023-03-20T03:25:38;8.00;99.90
70074;DHT22;57445;51.058;3.698;2023-03-20T03:28:14;7.70;99.90
70074;DHT22;57445;51.058;3.698;2023-03-20T03:30:48;7.80;99.90
70074;DHT22;57445;51.058;3.698;2023-03-20T03:33:24;7.80;99.90
70074;DHT22;57445;51.058;3.698;2023-03-20T03:35:58;7.90;99.90
70074;DHT22;57445;51.058;3.698;2023-03-20T03:38:30;7.80;99.90
70074;DHT22;57445;51.058;3.698;2023-03-20T03:41:11;7.60;99.90
70074;DHT22;57445;51.058;3.698;2023-03-20T03:43:52;7.70;99.90
70074;DHT22;57445;51.058;3.698;2023-03-20T03:46:27;8.20;99.90
70074;DHT22;57445;51.058;3.698;2023-03-20T03:49:02;8.10;99.90
70074;DHT22;57445;51.058;3.698;2023-03-20T03:51:38;8.00;99.90
70074;DHT22;57445;51.058;3.698;2023-03-20T03:54:11;7.90;99.90
70074;DHT22;57445;51.058;3.698;2023-03-20T03:56:43;8.10;99.90
70074;DHT22;57445;51.058;3.698;2023-03-20T03:59:19;7.80;99.90
70074;DHT22;57445;51.058;3.698;2023-03-20T04:01:49;7.90;99.90
70074;DHT22;57445;51.058;3.698;2023-03-20T04:04:20;8.10;99.90
70074;DHT22;57445;51.058;3.698;2023-03-20T04:06:49;7.90;99.90
70074;DHT22;57445;51.058;3.698;2023-03-20T04:09:17;8.00;99.90
70074;DHT22;57445;51.058;3.698;2023-03-20T04:11:49;8.00;99.90
70074;DHT22;57445;51.058;3.698;2023-03-20T04:14:18;8.10;99.90
70074;DHT22;57445;51.058;3.698;2023-03-20T04:16:46;8.10;99.90
70074;DHT22;57445;51.058;3.698;2023-03-20T04:19:14;8.30;99.90
70074;DHT22;57445;51.058;3.698;2023-03-20T04:21:42;8.30;99.90
70074;DHT22;57445;51.058;3.698;2023-03-20T04:24:13;8.10;99.90
70074;DHT22;57445;51.058;3.698;2023-03-20T04:26:41;8.10;99.90
70074;DHT22;57445;51.058;3.698;2023-03-20T04:29:12;8.00;99.90
70074;DHT22;57445;51.058;3.698;2023-03-20T04:31:41;8.20;99.90
70074;DHT22;57445;51.058;3.698;2023-03-20T04:34:09;8.30;99.90
70074;DHT22;57445;51.058;3.698;2023-03-20T04:36:42;8.30;99.90
70074;DHT22;57445;51.058;3.698;2023-03-20T04:39:10;7.80;99.90
70074;DHT22;57445;51.058;3.698;2023-03-20T04:41:38;7.90;99.90
70074;DHT22;57445;51.058;3.698;2023-03-20T04:44:06;8.00;99.90
70074;DHT22;57445;51.058;3.698;2023-03-20T04:46:36;8.00;99.90
70074;DHT22;57445;51.058;3.698;2023-03-20T04:49:08;8.00;99.90
70074;DHT22;57445;51.058;3.698;2023-03-20T04:51:36;7.90;99.90
70074;DHT22;57445;51.058;3.698;2023-03-20T04:54:03;7.90;99.90
70074;DHT22;57445;51.058;3.698;2023-03-20T04:56:38;7.90;99.90
70074;DHT22;57445;51.058;3.698;2023-03-20T04:59:07;7.80;99.90
70074;DHT22;57445;51.058;3.698;2023-03-20T05:01:37;7.90;99.90
70074;DHT22;57445;51.058;3.698;2023-03-20T05:04:05;7.80;99.90
70074;DHT22;57445;51.058;3.698;2023-03-20T05:06:39;8.00;99.90
70074;DHT22;57445;51.058;3.698;2023-03-20T05:09:09;8.00;99.90
70074;DHT22;57445;51.058;3.698;2023-03-20T05:11:37;7.90;99.90
70074;DHT22;57445;51.058;3.698;2023-03-20T05:14:05;7.80;99.90
70074;DHT22;57445;51.058;3.698;2023-03-20T05:16:33;7.50;99.90
70074;DHT22;57445;51.058;3.698;2023-03-20T05:19:03;7.50;99.90
70074;DHT22;57445;51.058;3.698;2023-03-20T05:21:31;7.70;99.90
70074;DHT22;57445;51.058;3.698;2023-03-20T05:23:59;7.70;99.90
70074;DHT22;57445;51.058;3.698;2023-03-20T05:26:27;7.90;99.90
70074;DHT22;57445;51.058;3.698;2023-03-20T05:28:55;8.00;99.90
70074;DHT22;57445;51.058;3.698;2023-03-20T05:31:24;7.80;99.90
70074;DHT22;57445;51.058;3.698;2023-03-20T05:33:52;7.90;99.90
70074;DHT22;57445;51.058;3.698;2023-03-20T05:36:28;8.00;99.90
70074;DHT22;57445;51.058;3.698;2023-03-20T05:39:01;8.10;99.90
70074;DHT22;57445;51.058;3.698;2023-03-20T05:41:29;8.00;99.90
70074;DHT22;57445;51.058;3.698;2023-03-20T05:43:57;7.80;99.90
70074;DHT22;57445;51.058;3.698;2023-03-20T05:46:25;7.60;99.90
70074;DHT22;57445;51.058;3.698;2023-03-20T05:48:53;7.70;99.90
70074;DHT22;57445;51.058;3.698;2023-03-20T05:51:22;7.90;99.90
70074;DHT22;57445;51.058;3.698;2023-03-20T05:53:51;7.90;99.90
70074;DHT22;57445;51.058;3.698;2023-03-20T05:56:21;7.70;99.90
70074;DHT22;57445;51.058;3.698;2023-03-20T05:58:53;7.90;99.90
70074;DHT22;57445;51.058;3.698;2023-03-20T06:01:24;8.10;99.90
70074;DHT22;57445;51.058;3.698;2023-03-20T06:04:00;8.30;99.90
70074;DHT22;57445;51.058;3.698;2023-03-20T06:06:28;8.30;99.90
70074;DHT22;57445;51.058;3.698;2023-03-20T06:08:57;8.40;99.90
70074;DHT22;57445;51.058;3.698;2023-03-20T06:11:25;8.00;99.90
70074;DHT22;57445;51.058;3.698;2023-03-20T06:13:53;7.90;99.90
70074;DHT22;57445;51.058;3.698;2023-03-20T06:16:26;8.10;99.90
70074;DHT22;57445;51.058;3.698;2023-03-20T06:18:55;8.00;99.90
70074;DHT22;57445;51.058;3.698;2023-03-20T06:21:22;7.70;99.90
70074;DHT22;57445;51.058;3.698;2023-03-20T06:23:51;8.00;99.90
70074;DHT22;57445;51.058;3.698;2023-03-20T06:26:21;8.00;99.90
70074;DHT22;57445;51.058;3.698;2023-03-20T06:28:49;7.90;99.90
70074;DHT22;57445;51.058;3.698;2023-03-20T06:31:22;8.10;99.90
70074;DHT22;57445;51.058;3.698;2023-03-20T06:33:50;8.20;99.90
70074;DHT22;57445;51.058;3.698;2023-03-20T06:36:18;7.90;99.90
70074;DHT22;57445;51.058;3.698;2023-03-20T06:38:47;7.80;99.90
70074;DHT22;57445;51.058;3.698;2023-03-20T06:41:15;8.00;99.90
70074;DHT22;57445;51.058;3.698;2023-03-20T06:43:44;7.90;99.90
70074;DHT22;57445;51.058;3.698;2023-03-20T06:46:12;7.80;99.90
70074;DHT22;57445;51.058;3.698;2023-03-20T06:48:44;8.00;99.90
70074;DHT22;57445;51.058;3.698;2023-03-20T06:51:15;7.60;99.90
70074;DHT22;57445;51.058;3.698;2023-03-20T06:53:43;7.70;99.90
70074;DHT22;57445;51.058;3.698;2023-03-20T06:56:19;7.80;99.90
70074;DHT22;57445;51.058;3.698;2023-03-20T06:58:49;8.10;99.90
70074;DHT22;57445;51.058;3.698;2023-03-20T07:01:17;8.10;99.90
70074;DHT22;57445;51.058;3.698;2023-03-20T07:03:45;8.20;99.90
70074;DHT22;57445;51.058;3.698;2023-03-20T07:06:14;8.20;99.90
70074;DHT22;57445;51.058;3.698;2023-03-20T07:08:43;8.30;99.90
70074;DHT22;57445;51.058;3.698;2023-03-20T07:11:15;8.50;99.90
70074;DHT22;57445;51.058;3.698;2023-03-20T07:13:43;9.00;99.90
70074;DHT22;57445;51.058;3.698;2023-03-20T07:16:13;8.60;99.90
70074;DHT22;57445;51.058;3.698;2023-03-20T07:18:41;8.60;99.90
70074;DHT22;57445;51.058;3.698;2023-03-20T07:21:10;8.60;99.90
70074;DHT22;57445;51.058;3.698;2023-03-20T07:23:38;8.40;99.90
70074;DHT22;57445;51.058;3.698;2023-03-20T07:26:07;8.50;99.90
70074;DHT22;57445;51.058;3.698;2023-03-20T07:28:35;8.40;99.90
70074;DHT22;57445;51.058;3.698;2023-03-20T07:31:03;8.70;99.90
70074;DHT22;57445;51.058;3.698;2023-03-20T07:33:36;8.80;99.90
70074;DHT22;57445;51.058;3.698;2023-03-20T07:36:05;8.90;99.90
70074;DHT22;57445;51.058;3.698;2023-03-20T07:38:33;9.10;99.90
70074;DHT22;57445;51.058;3.698;2023-03-20T07:41:01;9.30;99.90
70074;DHT22;57445;51.058;3.698;2023-03-20T07:43:33;9.10;99.90
70074;DHT22;57445;51.058;3.698;2023-03-20T07:46:02;9.10;99.90
70074;DHT22;57445;51.058;3.698;2023-03-20T07:48:30;9.00;99.90
70074;DHT22;57445;51.058;3.698;2023-03-20T07:50:59;8.80;99.90
70074;DHT22;57445;51.058;3.698;2023-03-20T07:53:27;8.90;99.90
70074;DHT22;57445;51.058;3.698;2023-03-20T07:55:56;8.80;99.90
70074;DHT22;57445;51.058;3.698;2023-03-20T07:58:24;8.70;99.90
70074;DHT22;57445;51.058;3.698;2023-03-20T08:00:52;8.90;99.90
70074;DHT22;57445;51.058;3.698;2023-03-20T08:03:20;9.40;99.90
70074;DHT22;57445;51.058;3.698;2023-03-20T08:05:53;9.70;99.90
70074;DHT22;57445;51.058;3.698;2023-03-20T08:08:23;9.40;99.90
70074;DHT22;57445;51.058;3.698;2023-03-20T08:10:51;9.20;99.90
70074;DHT22;57445;51.058;3.698;2023-03-20T08:13:18;9.10;99.90
70074;DHT22;57445;51.058;3.698;2023-03-20T08:15:48;9.10;99.90
70074;DHT22;57445;51.058;3.698;2023-03-20T08:18:21;9.40;99.90
70074;DHT22;57445;51.058;3.698;2023-03-20T08:20:49;9.90;99.90
70074;DHT22;57445;51.058;3.698;2023-03-20T08:23:17;10.20;99.90
70074;DHT22;57445;51.058;3.698;2023-03-20T08:25:50;10.40;99.20
70074;DHT22;57445;51.058;3.698;2023-03-20T08:28:23;9.80;99.90
70074;DHT22;57445;51.058;3.698;2023-03-20T08:30:56;10.20;99.70
70074;DHT22;57445;51.058;3.698;2023-03-20T08:33:28;9.80;99.90
70074;DHT22;57445;51.058;3.698;2023-03-20T08:35:59;9.80;99.90
70074;DHT22;57445;51.058;3.698;2023-03-20T08:38:27;9.80;99.90
70074;DHT22;57445;51.058;3.698;2023-03-20T08:41:01;9.80;99.90
70074;DHT22;57445;51.058;3.698;2023-03-20T08:43:33;10.40;99.80
70074;DHT22;57445;51.058;3.698;2023-03-20T08:46:02;10.50;99.50
70074;DHT22;57445;51.058;3.698;2023-03-20T08:48:30;10.70;98.90
70074;DHT22;57445;51.058;3.698;2023-03-20T08:50:58;10.90;98.50
70074;DHT22;57445;51.058;3.698;2023-03-20T08:53:26;10.70;98.40
70074;DHT22;57445;51.058;3.698;2023-03-20T08:55:58;10.70;98.60
70074;DHT22;57445;51.058;3.698;2023-03-20T08:58:28;10.50;99.00
70074;DHT22;57445;51.058;3.698;2023-03-20T09:01:04;10.70;98.70
70074;DHT22;57445;51.058;3.698;2023-03-20T09:03:32;11.10;97.90
70074;DHT22;57445;51.058;3.698;2023-03-20T09:06:06;11.10;98.00
70074;DHT22;57445;51.058;3.698;2023-03-20T09:08:38;11.30;97.10
70074;DHT22;57445;51.058;3.698;2023-03-20T09:11:07;11.50;97.10
70074;DHT22;57445;51.058;3.698;2023-03-20T09:13:41;11.80;96.20
70074;DHT22;57445;51.058;3.698;2023-03-20T09:16:10;11.60;96.80
70074;DHT22;57445;51.058;3.698;2023-03-20T09:18:37;11.40;97.20
70074;DHT22;57445;51.058;3.698;2023-03-20T09:21:06;11.70;97.00
70074;DHT22;57445;51.058;3.698;2023-03-20T09:23:36;11.40;97.40
70074;DHT22;57445;51.058;3.698;2023-03-20T09:26:05;11.80;96.70
70074;DHT22;57445;51.058;3.698;2023-03-20T09:28:32;11.80;96.30
70074;DHT22;57445;51.058;3.698;2023-03-20T09:31:02;11.80;96.50
70074;DHT22;57445;51.058;3.698;2023-03-20T09:33:30;12.10;95.80
70074;DHT22;57445;51.058;3.698;2023-03-20T09:35:59;12.30;95.80
70074;DHT22;57445;51.058;3.698;2023-03-20T09:38:27;12.20;95.80
70074;DHT22;57445;51.058;3.698;2023-03-20T09:40:55;12.40;95.40
70074;DHT22;57445;51.058;3.698;2023-03-20T09:43:44;12.00;95.60
70074;DHT22;57445;51.058;3.698;2023-03-20T09:46:24;12.00;95.80
70074;DHT22;57445;51.058;3.698;2023-03-20T09:49:04;11.90;96.00
70074;DHT22;57445;51.058;3.698;2023-03-20T09:51:39;11.70;96.30
70074;DHT22;57445;51.058;3.698;2023-03-20T09:54:16;12.00;96.10
70074;DHT22;57445;51.058;3.698;2023-03-20T09:56:51;12.20;96.00
70074;DHT22;57445;51.058;3.698;2023-03-20T09:59:19;12.00;95.90
70074;DHT22;57445;51.058;3.698;2023-03-20T10:01:51;11.40;97.20
70074;DHT22;57445;51.058;3.698;2023-03-20T10:04:21;11.50;98.00
70074;DHT22;57445;51.058;3.698;2023-03-20T10:06:53;11.50;98.30
70074;DHT22;57445;51.058;3.698;2023-03-20T10:09:23;11.30;97.60
70074;DHT22;57445;51.058;3.698;2023-03-20T10:12:21;11.40;97.40
70074;DHT22;57445;51.058;3.698;2023-03-20T10:14:57;11.90;97.00
70074;DHT22;57445;51.058;3.698;2023-03-20T10:17:39;11.80;96.70
70074;DHT22;57445;51.058;3.698;2023-03-20T10:22:45;12.00;95.90
70074;DHT22;57445;51.058;3.698;2023-03-20T10:25:21;12.50;96.20
70074;DHT22;57445;51.058;3.698;2023-03-20T10:27:55;12.40;95.60
70074;DHT22;57445;51.058;3.698;2023-03-20T10:30:43;12.60;95.10
70074;DHT22;57445;51.058;3.698;2023-03-20T10:33:30;12.90;95.00
70074;DHT22;57445;51.058;3.698;2023-03-20T10:36:22;12.40;95.70
70074;DHT22;57445;51.058;3.698;2023-03-20T10:39:01;12.70;95.30
70074;DHT22;57445;51.058;3.698;2023-03-20T10:41:36;12.70;95.20
70074;DHT22;57445;51.058;3.698;2023-03-20T10:44:10;12.70;95.20
70074;DHT22;57445;51.058;3.698;2023-03-20T10:46:43;12.70;95.20
70074;DHT22;57445;51.058;3.698;2023-03-20T10:49:18;12.80;95.10
70074;DHT22;57445;51.058;3.698;2023-03-20T10:51:50;13.30;94.30
70074;DHT22;57445;51.058;3.698;2023-03-20T10:54:26;13.00;94.70
70074;DHT22;57445;51.058;3.698;2023-03-20T10:56:57;12.70;94.90
70074;DHT22;57445;51.058;3.698;2023-03-20T10:59:33;12.80;94.90
70074;DHT22;57445;51.058;3.698;2023-03-20T11:02:09;13.20;94.40
70074;DHT22;57445;51.058;3.698;2023-03-20T11:04:39;13.00;94.50
70074;DHT22;57445;51.058;3.698;2023-03-20T11:07:12;13.30;94.60
70074;DHT22;57445;51.058;3.698;2023-03-20T11:09:43;14.00;93.50
70074;DHT22;57445;51.058;3.698;2023-03-20T11:12:16;14.10;93.00
70074;DHT22;57445;51.058;3.698;2023-03-20T11:14:46;13.60;93.40
70074;DHT22;57445;51.058;3.698;2023-03-20T11:17:16;13.60;93.80
70074;DHT22;57445;51.058;3.698;2023-03-20T11:19:45;13.80;93.30
70074;DHT22;57445;51.058;3.698;2023-03-20T11:22:23;13.80;93.30
70074;DHT22;57445;51.058;3.698;2023-03-20T11:24:58;13.40;93.90
70074;DHT22;57445;51.058;3.698;2023-03-20T11:27:30;13.50;93.90
70074;DHT22;57445;51.058;3.698;2023-03-20T11:30:05;13.50;93.90
70074;DHT22;57445;51.058;3.698;2023-03-20T11:32:40;13.90;93.40
70074;DHT22;57445;51.058;3.698;2023-03-20T11:35:18;13.80;93.40
70074;DHT22;57445;51.058;3.698;2023-03-20T11:37:49;14.00;93.00
70074;DHT22;57445;51.058;3.698;2023-03-20T11:40:24;14.00;93.30
70074;DHT22;57445;51.058;3.698;2023-03-20T11:43:01;14.20;92.60
70074;DHT22;57445;51.058;3.698;2023-03-20T11:45:32;14.30;92.90
70074;DHT22;57445;51.058;3.698;2023-03-20T11:48:01;14.70;92.10
70074;DHT22;57445;51.058;3.698;2023-03-20T11:50:33;14.80;92.10
70074;DHT22;57445;51.058;3.698;2023-03-20T11:53:14;14.30;92.70
70074;DHT22;57445;51.058;3.698;2023-03-20T11:55:55;14.30;93.00
70074;DHT22;57445;51.058;3.698;2023-03-20T11:58:25;14.30;92.50
70074;DHT22;57445;51.058;3.698;2023-03-20T12:00:55;14.20;92.80
70074;DHT22;57445;51.058;3.698;2023-03-20T12:03:45;14.00;93.10
70074;DHT22;57445;51.058;3.698;2023-03-20T12:06:24;13.60;93.60
70074;DHT22;57445;51.058;3.698;2023-03-20T12:08:59;13.60;93.80
70074;DHT22;57445;51.058;3.698;2023-03-20T12:11:46;13.70;94.10
70074;DHT22;57445;51.058;3.698;2023-03-20T12:14:20;13.60;93.80
70074;DHT22;57445;51.058;3.698;2023-03-20T12:16:51;13.30;94.70
70074;DHT22;57445;51.058;3.698;2023-03-20T12:19:24;13.30;94.30
70074;DHT22;57445;51.058;3.698;2023-03-20T12:22:11;13.40;94.50
70074;DHT22;57445;51.058;3.698;2023-03-20T12:24:44;13.60;94.30
70074;DHT22;57445;51.058;3.698;2023-03-20T12:27:23;13.80;94.00
70074;DHT22;57445;51.058;3.698;2023-03-20T12:29:57;14.30;93.40
70074;DHT22;57445;51.058;3.698;2023-03-20T12:32:37;14.30;93.50
70074;DHT22;57445;51.058;3.698;2023-03-20T12:35:12;14.10;93.50
70074;DHT22;57445;51.058;3.698;2023-03-20T12:37:43;14.00;93.80
70074;DHT22;57445;51.058;3.698;2023-03-20T12:40:17;13.90;93.90
70074;DHT22;57445;51.058;3.698;2023-03-20T12:42:58;13.80;94.00
70074;DHT22;57445;51.058;3.698;2023-03-20T12:45:38;13.50;94.60
70074;DHT22;57445;51.058;3.698;2023-03-20T12:51:06;13.70;94.50
70074;DHT22;57445;51.058;3.698;2023-03-20T12:53:51;13.90;94.20
70074;DHT22;57445;51.058;3.698;2023-03-20T12:56:29;13.20;94.90
70074;DHT22;57445;51.058;3.698;2023-03-20T12:59:03;13.40;95.30
70074;DHT22;57445;51.058;3.698;2023-03-20T13:01:44;13.30;95.10
70074;DHT22;57445;51.058;3.698;2023-03-20T13:04:26;13.30;95.30
70074;DHT22;57445;51.058;3.698;2023-03-20T13:07:04;13.50;95.20
70074;DHT22;57445;51.058;3.698;2023-03-20T13:09:52;13.70;94.60
70074;DHT22;57445;51.058;3.698;2023-03-20T13:12:32;13.90;94.50
70074;DHT22;57445;51.058;3.698;2023-03-20T13:15:13;13.90;94.40
70074;DHT22;57445;51.058;3.698;2023-03-20T13:17:46;13.80;94.50
70074;DHT22;57445;51.058;3.698;2023-03-20T13:20:28;13.20;95.50
70074;DHT22;57445;51.058;3.698;2023-03-20T13:23:17;13.10;96.00
70074;DHT22;57445;51.058;3.698;2023-03-20T13:26:12;13.20;96.10
70074;DHT22;57445;51.058;3.698;2023-03-20T13:28:51;12.90;96.30
70074;DHT22;57445;51.058;3.698;2023-03-20T13:31:29;13.20;96.20
70074;DHT22;57445;51.058;3.698;2023-03-20T13:34:05;13.50;95.50
70074;DHT22;57445;51.058;3.698;2023-03-20T13:36:51;13.40;95.60
70074;DHT22;57445;51.058;3.698;2023-03-20T13:39:23;13.70;95.30
70074;DHT22;57445;51.058;3.698;2023-03-20T13:41:56;13.60;95.20
70074;DHT22;57445;51.058;3.698;2023-03-20T13:44:28;13.60;95.30
70074;DHT22;57445;51.058;3.698;2023-03-20T13:46:58;13.50;95.80
70074;DHT22;57445;51.058;3.698;2023-03-20T13:49:34;13.80;95.20
70074;DHT22;57445;51.058;3.698;2023-03-20T13:52:07;13.60;95.30
70074;DHT22;57445;51.058;3.698;2023-03-20T13:54:49;13.50;95.90
70074;DHT22;57445;51.058;3.698;2023-03-20T13:57:38;13.90;95.30
70074;DHT22;57445;51.058;3.698;2023-03-20T14:00:17;14.10;95.10
70074;DHT22;57445;51.058;3.698;2023-03-20T14:03:15;13.50;95.80
70074;DHT22;57445;51.058;3.698;2023-03-20T14:05:45;13.10;96.60
70074;DHT22;57445;51.058;3.698;2023-03-20T14:08:31;13.40;96.40
70074;DHT22;57445;51.058;3.698;2023-03-20T14:13:54;13.80;95.80
70074;DHT22;57445;51.058;3.698;2023-03-20T14:16:27;13.60;96.10
70074;DHT22;57445;51.058;3.698;2023-03-20T14:19:05;13.30;96.40
70074;DHT22;57445;51.058;3.698;2023-03-20T14:21:34;13.50;96.30
70074;DHT22;57445;51.058;3.698;2023-03-20T14:24:04;13.20;96.90
70074;DHT22;57445;51.058;3.698;2023-03-20T14:26:36;12.80;97.30
70074;DHT22;57445;51.058;3.698;2023-03-20T14:29:34;12.70;97.60
70074;DHT22;57445;51.058;3.698;2023-03-20T14:35:26;12.70;97.80
70074;DHT22;57445;51.058;3.698;2023-03-20T14:38:17;13.10;97.40
70074;DHT22;57445;51.058;3.698;2023-03-20T14:40:51;13.40;96.70
70074;DHT22;57445;51.058;3.698;2023-03-20T14:43:31;13.70;96.30
70074;DHT22;57445;51.058;3.698;2023-03-20T14:46:14;13.60;96.30
70074;DHT22;57445;51.058;3.698;2023-03-20T14:48:45;13.50;96.50
70074;DHT22;57445;51.058;3.698;2023-03-20T14:51:24;13.40;96.70
70074;DHT22;57445;51.058;3.698;2023-03-20T14:54:24;13.70;96.60
70074;DHT22;57445;51.058;3.698;2023-03-20T14:56:53;14.20;96.30
70074;DHT22;57445;51.058;3.698;2023-03-20T14:59:22;14.10;95.90
70074;DHT22;57445;51.058;3.698;2023-03-20T15:01:58;14.00;96.40
70074;DHT22;57445;51.058;3.698;2023-03-20T15:04:30;14.10;96.10
70074;DHT22;57445;51.058;3.698;2023-03-20T15:07:00;14.10;96.10
70074;DHT22;57445;51.058;3.698;2023-03-20T15:09:34;14.30;96.00
70074;DHT22;57445;51.058;3.698;2023-03-20T15:12:05;14.10;96.10
70074;DHT22;57445;51.058;3.698;2023-03-20T15:14:37;14.20;95.80
70074;DHT22;57445;51.058;3.698;2023-03-20T15:17:16;14.00;96.40
70074;DHT22;57445;51.058;3.698;2023-03-20T15:19:47;14.40;95.70
70074;DHT22;57445;51.058;3.698;2023-03-20T15:22:17;14.50;95.50
70074;DHT22;57445;51.058;3.698;2023-03-20T15:24:56;14.50;95.40
70074;DHT22;57445;51.058;3.698;2023-03-20T15:27:25;14.40;95.60
70074;DHT22;57445;51.058;3.698;2023-03-20T15:30:00;14.20;95.90
70074;DHT22;57445;51.058;3.698;2023-03-20T15:32:34;13.90;96.20
70074;DHT22;57445;51.058;3.698;2023-03-20T15:35:04;14.00;96.10
70074;DHT22;57445;51.058;3.698;2023-03-20T15:37:33;13.70;96.40
70074;DHT22;57445;51.058;3.698;2023-03-20T15:40:10;13.20;97.20
70074;DHT22;57445;51.058;3.698;2023-03-20T15:42:39;13.20;97.40
70074;DHT22;57445;51.058;3.698;2023-03-20T15:45:21;13.50;97.10
70074;DHT22;57445;51.058;3.698;2023-03-20T15:47:51;13.50;96.90
70074;DHT22;57445;51.058;3.698;2023-03-20T15:50:26;13.20;98.10
70074;DHT22;57445;51.058;3.698;2023-03-20T15:53:02;13.00;98.70
70074;DHT22;57445;51.058;3.698;2023-03-20T15:55:30;13.00;99.10
70074;DHT22;57445;51.058;3.698;2023-03-20T15:58:01;13.00;98.70
70074;DHT22;57445;51.058;3.698;2023-03-20T16:00:30;13.20;98.20
70074;DHT22;57445;51.058;3.698;2023-03-20T16:03:01;13.10;98.40
70074;DHT22;57445;51.058;3.698;2023-03-20T16:05:31;13.10;98.60
70074;DHT22;57445;51.058;3.698;2023-03-20T16:08:11;13.00;98.50
70074;DHT22;57445;51.058;3.698;2023-03-20T16:10:44;13.00;98.70
70074;DHT22;57445;51.058;3.698;2023-03-20T16:13:13;13.00;98.70
70074;DHT22;57445;51.058;3.698;2023-03-20T16:15:44;12.90;99.20
70074;DHT22;57445;51.058;3.698;2023-03-20T16:18:15;12.80;99.20
70074;DHT22;57445;51.058;3.698;2023-03-20T16:20:51;12.80;99.50
70074;DHT22;57445;51.058;3.698;2023-03-20T16:23:32;13.30;98.40
70074;DHT22;57445;51.058;3.698;2023-03-20T16:26:02;13.00;98.90
70074;DHT22;57445;51.058;3.698;2023-03-20T16:28:34;12.70;99.30
70074;DHT22;57445;51.058;3.698;2023-03-20T16:31:06;12.80;99.30
70074;DHT22;57445;51.058;3.698;2023-03-20T16:33:38;13.20;99.20
70074;DHT22;57445;51.058;3.698;2023-03-20T16:36:07;12.90;99.70
70074;DHT22;57445;51.058;3.698;2023-03-20T16:38:36;12.70;99.90